Time;durP1;ratioP1;P1;durP2;ratioP2;P2;SDS_P1;SDS_P2;PMS_P1;PMS_P2;Temp;Humidity;BMP_temperature;BMP_pressure;BME280_temperature;BME280_humidity;BME280_pressure;Samples;Min_cycle;Max_cycle;Signal;HPM_P1;HPM_P2
2021/12/21 00:00:45;;;;;;;7.90;4.63;;;-0.50;99.90;;;;;;5031351;28;20210;-67
2021/12/21 00:03:10;;;;;;;5.77;4.53;;;-0.50;99.90;;;;;;5031449;28;20656;-66
2021/12/21 00:05:36;;;;;;;6.23;4.57;;;-0.60;99.90;;;;;;5033185;28;20198;-73
2021/12/21 00:08:04;;;;;;;4.70;4.40;;;-0.60;99.90;;;;;;5033478;28;20242;-76
2021/12/21 00:10:32;;;;;;;7.68;5.55;;;-0.60;99.90;;;;;;5032501;28;20399;-76
2021/12/21 00:18:16;;;;;;;5.78;4.28;;;-0.60;99.90;;;;;;5033221;28;20176;-67
2021/12/21 00:25:56;;;;;;;6.32;4.95;;;-0.70;99.90;;;;;;5032709;28;20183;-76
2021/12/21 00:28:23;;;;;;;5.65;4.28;;;-0.70;99.90;;;;;;5032752;28;20237;-66
2021/12/21 00:30:48;;;;;;;5.97;3.95;;;-0.70;99.90;;;;;;5032956;28;20617;-75
2021/12/21 00:33:14;;;;;;;9.53;5.50;;;-0.70;99.90;;;;;;5031674;28;20233;-76
2021/12/21 00:35:39;;;;;;;4.60;4.20;;;-0.70;99.90;;;;;;5032859;28;20195;-76
2021/12/21 00:38:05;;;;;;;5.90;5.40;;;-0.70;99.90;;;;;;5032712;28;20180;-76
2021/12/21 00:40:32;;;;;;;6.03;4.87;;;-0.80;99.90;;;;;;5031780;28;20218;-67
2021/12/21 00:42:58;;;;;;;4.80;4.40;;;-0.80;99.90;;;;;;5030265;28;20186;-66
2021/12/21 00:45:24;;;;;;;7.53;6.13;;;-0.90;99.90;;;;;;5032753;28;20171;-68
2021/12/21 00:47:50;;;;;;;6.90;5.00;;;-0.90;99.90;;;;;;5032504;28;20168;-66
2021/12/21 00:50:22;;;;;;;4.20;4.00;;;-1.00;99.90;;;;;;5032695;28;20479;-66
2021/12/21 00:52:50;;;;;;;16.33;5.22;;;-1.00;99.90;;;;;;5031630;28;20515;-67
2021/12/21 00:55:16;;;;;;;4.90;4.43;;;-1.00;99.90;;;;;;5032596;28;20195;-75
2021/12/21 00:57:42;;;;;;;5.13;4.72;;;-1.10;99.90;;;;;;5019945;28;20180;-74
2021/12/21 01:00:10;;;;;;;7.27;6.00;;;-1.10;99.90;;;;;;5011149;28;20180;-75
2021/12/21 01:02:38;;;;;;;6.18;5.65;;;-1.10;99.90;;;;;;5026261;28;20199;-66
2021/12/21 01:05:09;;;;;;;13.63;5.78;;;-1.10;99.90;;;;;;5032477;28;20206;-66
2021/12/21 01:07:40;;;;;;;7.00;4.65;;;-1.10;99.90;;;;;;5031124;28;20229;-68
2021/12/21 01:10:40;;;;;;;7.75;5.50;;;-1.10;99.90;;;;;;5032772;28;20243;-66
2021/12/21 01:15:58;;;;;;;6.45;4.85;;;-1.10;99.90;;;;;;5032135;28;20179;-75
2021/12/21 01:18:22;;;;;;;4.75;4.30;;;-1.20;99.90;;;;;;5013320;28;20211;-66
2021/12/21 01:26:26;;;;;;;5.03;4.07;;;-1.20;99.90;;;;;;5035767;28;20202;-67
2021/12/21 01:29:42;;;;;;;6.15;5.55;;;-1.20;99.90;;;;;;5036145;28;20641;-75
2021/12/21 01:34:56;;;;;;;5.00;4.57;;;-1.20;99.90;;;;;;5035235;28;20167;-76
2021/12/21 01:37:03;;;;;;;5.18;4.65;;;-1.20;99.90;;;;;;5036650;28;20203;-67
2021/12/21 01:42:42;;;;;;;5.68;4.93;;;-1.20;99.90;;;;;;5035114;28;20187;-66
2021/12/21 01:50:36;;;;;;;5.15;4.75;;;-1.20;99.90;;;;;;5035656;28;20245;-67
2021/12/21 01:53:02;;;;;;;4.73;4.33;;;-1.20;99.90;;;;;;5034823;28;20171;-66
2021/12/21 01:55:28;;;;;;;4.97;4.43;;;-1.20;99.90;;;;;;5034431;28;20496;-66
2021/12/21 01:57:54;;;;;;;4.60;4.30;;;-1.20;99.90;;;;;;5035618;28;20274;-75
2021/12/21 02:00:20;;;;;;;4.40;4.10;;;-1.20;99.90;;;;;;5034328;28;20172;-66
2021/12/21 02:02:46;;;;;;;5.40;4.90;;;-1.20;99.90;;;;;;5034700;28;20184;-66
2021/12/21 02:05:12;;;;;;;4.23;3.93;;;-1.20;99.90;;;;;;5033747;28;20585;-75
2021/12/21 02:07:38;;;;;;;7.55;4.68;;;-1.20;99.90;;;;;;5035239;28;20246;-66
2021/12/21 02:10:04;;;;;;;6.03;4.32;;;-1.30;99.90;;;;;;5034435;28;20174;-76
2021/12/21 02:12:30;;;;;;;4.63;4.32;;;-1.30;99.90;;;;;;5033794;28;20533;-65
2021/12/21 02:14:58;;;;;;;4.85;4.55;;;-1.20;99.90;;;;;;5034895;28;20648;-70
2021/12/21 02:20:38;;;;;;;6.95;4.05;;;-1.30;99.90;;;;;;5035140;28;20180;-66
2021/12/21 02:23:10;;;;;;;3.95;3.65;;;-1.30;99.90;;;;;;5034106;28;20640;-66
2021/12/21 02:26:08;;;;;;;5.90;4.80;;;-1.30;99.90;;;;;;5033926;28;20242;-72
2021/12/21 02:28:47;;;;;;;4.97;4.57;;;-1.30;99.90;;;;;;5034944;28;20529;-66
2021/12/21 02:31:13;;;;;;;5.38;4.50;;;-1.30;99.90;;;;;;5033740;28;20172;-76
2021/12/21 02:33:39;;;;;;;4.30;4.00;;;-1.20;99.90;;;;;;5032942;28;20174;-75
2021/12/21 02:36:05;;;;;;;4.80;3.53;;;-1.30;99.90;;;;;;5034562;28;20661;-66
2021/12/21 02:38:32;;;;;;;6.77;5.03;;;-1.30;99.90;;;;;;5034648;28;20497;-66
2021/12/21 02:40:58;;;;;;;5.18;4.78;;;-1.40;99.90;;;;;;5033452;28;20195;-77
2021/12/21 02:43:23;;;;;;;4.57;4.27;;;-1.40;99.90;;;;;;5033599;28;20247;-76
2021/12/21 02:45:49;;;;;;;5.33;4.70;;;-1.40;99.90;;;;;;5034499;28;20278;-72
2021/12/21 02:48:15;;;;;;;6.00;3.97;;;-1.50;99.90;;;;;;5033471;28;20183;-74
2021/12/21 02:50:41;;;;;;;5.00;4.43;;;-1.50;99.90;;;;;;5034425;28;20426;-65
2021/12/21 02:53:08;;;;;;;8.27;4.13;;;-1.50;99.90;;;;;;5033727;28;20172;-65
2021/12/21 02:55:34;;;;;;;6.10;3.63;;;-1.50;99.90;;;;;;5034267;28;20195;-72
2021/12/21 02:58:00;;;;;;;6.10;4.87;;;-1.50;99.90;;;;;;5015081;28;20600;-66
2021/12/21 03:00:28;;;;;;;3.78;3.58;;;-1.50;99.90;;;;;;5016054;28;20399;-66
2021/12/21 03:02:57;;;;;;;8.02;4.78;;;-1.50;99.90;;;;;;5033497;28;20168;-75
2021/12/21 03:05:23;;;;;;;5.55;5.15;;;-1.50;99.90;;;;;;5034242;28;20182;-66
2021/12/21 03:10:23;;;;;;;4.22;3.85;;;-1.50;99.90;;;;;;5014619;28;20407;-77
2021/12/21 03:15:22;;;;;;;3.65;3.38;;;-1.60;99.90;;;;;;5034182;28;20172;-76
2021/12/21 03:17:49;;;;;;;5.97;4.13;;;-1.60;99.90;;;;;;5033767;28;20649;-76
2021/12/21 03:20:16;;;;;;;4.80;4.40;;;-1.60;99.90;;;;;;5033657;28;20179;-67
2021/12/21 03:22:42;;;;;;;6.75;4.38;;;-1.60;99.90;;;;;;5032778;28;20213;-76
2021/12/21 03:25:09;;;;;;;6.60;4.90;;;-1.60;99.90;;;;;;5032622;28;20329;-75
2021/12/21 03:27:34;;;;;;;4.43;4.13;;;-1.60;99.90;;;;;;5032804;28;20942;-70
2021/12/21 03:30:00;;;;;;;4.97;4.67;;;-1.60;99.90;;;;;;5032407;28;20203;-74
2021/12/21 03:32:26;;;;;;;4.50;4.10;;;-1.60;99.90;;;;;;5032686;28;20180;-65
2021/12/21 03:34:52;;;;;;;7.37;5.03;;;-1.60;99.90;;;;;;5032858;28;20188;-72
2021/12/21 03:37:18;;;;;;;8.30;5.27;;;-1.70;99.90;;;;;;5032449;28;20252;-76
2021/12/21 03:39:45;;;;;;;9.90;4.82;;;-1.70;99.90;;;;;;5033767;28;20194;-75
2021/12/21 03:42:14;;;;;;;5.10;4.68;;;-1.70;99.90;;;;;;5032462;28;20211;-74
2021/12/21 03:44:41;;;;;;;4.25;3.95;;;-1.70;99.90;;;;;;5033172;28;20295;-67
2021/12/21 03:47:10;;;;;;;8.98;3.75;;;-1.70;99.90;;;;;;5032434;28;20223;-67
2021/12/21 03:52:17;;;;;;;3.80;3.58;;;-1.60;99.90;;;;;;5032738;28;20176;-74
2021/12/21 03:54:47;;;;;;;10.60;6.25;;;-1.60;99.90;;;;;;5032199;28;20176;-78
2021/12/21 03:57:14;;;;;;;5.15;4.43;;;-1.60;99.90;;;;;;5032351;28;20207;-76
2021/12/21 03:59:43;;;;;;;8.52;5.25;;;-1.60;99.90;;;;;;5033191;28;20242;-75
2021/12/21 04:02:11;;;;;;;7.43;4.47;;;-1.60;99.90;;;;;;5032456;28;20326;-75
2021/12/21 04:04:38;;;;;;;5.18;4.68;;;-1.60;99.90;;;;;;5032987;28;20681;-65
2021/12/21 04:07:04;;;;;;;6.97;3.88;;;-1.60;99.90;;;;;;5032206;28;20207;-66
2021/12/21 04:09:30;;;;;;;8.50;4.90;;;-1.60;99.90;;;;;;5033048;28;20698;-66
2021/12/21 04:11:56;;;;;;;4.73;4.07;;;-1.60;99.90;;;;;;5032895;28;20183;-76
2021/12/21 04:14:21;;;;;;;4.67;4.30;;;-1.70;99.90;;;;;;5032264;28;20179;-76
2021/12/21 04:16:49;;;;;;;5.27;4.80;;;-1.70;99.90;;;;;;5033089;28;20665;-66
2021/12/21 04:19:14;;;;;;;10.88;5.13;;;-1.70;99.90;;;;;;5032878;28;20263;-66
2021/12/21 04:21:41;;;;;;;4.80;4.50;;;-1.70;99.90;;;;;;5033070;28;20704;-66
2021/12/21 04:24:07;;;;;;;5.13;4.60;;;-1.70;99.90;;;;;;5031029;28;20227;-68
2021/12/21 04:26:32;;;;;;;9.63;5.00;;;-1.80;99.90;;;;;;5032884;28;20227;-75
2021/12/21 04:28:58;;;;;;;4.00;3.70;;;-1.80;99.90;;;;;;5024114;28;20238;-66
2021/12/21 04:31:24;;;;;;;5.90;5.40;;;-1.80;99.90;;;;;;5013451;28;20172;-66
2021/12/21 04:33:49;;;;;;;5.23;4.73;;;-1.80;99.90;;;;;;5022763;28;20416;-66
2021/12/21 04:36:16;;;;;;;5.00;4.60;;;-1.80;99.90;;;;;;5032854;28;20195;-67
2021/12/21 04:38:46;;;;;;;4.43;4.13;;;-1.90;99.90;;;;;;5032594;28;20203;-74
2021/12/21 04:41:17;;;;;;;5.35;4.93;;;-1.80;99.90;;;;;;5032877;28;20175;-76
2021/12/21 04:43:43;;;;;;;5.55;5.00;;;-1.80;99.90;;;;;;5029521;28;20278;-66
2021/12/21 04:46:10;;;;;;;5.47;4.97;;;-1.90;99.90;;;;;;5032804;28;20246;-74
2021/12/21 04:48:36;;;;;;;4.30;4.00;;;-1.90;99.90;;;;;;5031264;28;20313;-74
2021/12/21 04:51:02;;;;;;;9.37;4.50;;;-1.80;99.90;;;;;;5031492;28;20230;-66
2021/12/21 04:53:28;;;;;;;6.45;5.82;;;-1.90;99.90;;;;;;5030474;28;20186;-65
2021/12/21 04:55:54;;;;;;;5.27;4.80;;;-1.90;99.90;;;;;;5032716;28;20191;-75
2021/12/21 04:58:20;;;;;;;6.80;4.83;;;-1.90;99.90;;;;;;5036495;28;20179;-75
2021/12/21 05:00:47;;;;;;;7.30;5.15;;;-1.90;99.90;;;;;;5036264;28;20416;-67
2021/12/21 05:03:13;;;;;;;3.83;3.53;;;-1.90;99.90;;;;;;5034830;28;20184;-67
2021/12/21 05:05:39;;;;;;;4.60;4.20;;;-1.90;99.90;;;;;;5036442;28;20191;-76
2021/12/21 05:08:39;;;;;;;4.13;3.83;;;-1.90;99.90;;;;;;5036497;28;20182;-66
2021/12/21 05:11:01;;;;;;;7.18;4.30;;;-1.90;99.90;;;;;;5016221;28;20184;-66
2021/12/21 05:13:30;;;;;;;4.80;4.50;;;-1.90;99.90;;;;;;5017687;28;20172;-66
2021/12/21 05:15:56;;;;;;;5.22;4.93;;;-1.90;99.90;;;;;;5036343;28;20722;-65
2021/12/21 05:18:22;;;;;;;6.53;5.50;;;-1.90;99.90;;;;;;5035906;28;20645;-75
2021/12/21 05:20:48;;;;;;;3.53;3.33;;;-1.90;99.90;;;;;;5035557;28;20287;-70
2021/12/21 05:23:14;;;;;;;4.38;4.18;;;-2.10;99.90;;;;;;5034777;28;20184;-65
2021/12/21 05:25:41;;;;;;;4.10;3.80;;;-2.00;99.90;;;;;;5035500;28;20199;-76
2021/12/21 05:28:08;;;;;;;5.18;4.78;;;-2.00;99.90;;;;;;5035957;28;20516;-76
2021/12/21 05:30:34;;;;;;;11.43;5.45;;;-2.00;99.90;;;;;;5035957;28;20732;-75
2021/12/21 05:33:01;;;;;;;5.95;5.35;;;-2.00;99.90;;;;;;5034981;28;20175;-76
2021/12/21 05:35:27;;;;;;;4.78;4.20;;;-2.00;99.90;;;;;;5035657;28;20226;-76
2021/12/21 05:37:57;;;;;;;6.55;4.95;;;-2.00;99.90;;;;;;5035062;28;20168;-67
2021/12/21 05:40:30;;;;;;;18.75;5.28;;;-2.00;99.90;;;;;;5017248;28;20180;-66
2021/12/21 05:42:56;;;;;;;5.38;4.18;;;-1.90;99.90;;;;;;5016462;28;20521;-72
2021/12/21 05:45:21;;;;;;;9.23;5.87;;;-2.00;99.90;;;;;;5035447;28;20211;-67
2021/12/21 05:47:47;;;;;;;5.80;4.73;;;-2.00;99.90;;;;;;5034318;28;20171;-66
2021/12/21 05:50:16;;;;;;;4.20;3.80;;;-2.10;99.90;;;;;;5016096;28;20282;-68
2021/12/21 05:52:44;;;;;;;4.47;4.22;;;-2.20;99.90;;;;;;5017357;28;20171;-74
2021/12/21 05:55:10;;;;;;;5.10;4.65;;;-2.20;99.90;;;;;;5034510;28;20533;-73
2021/12/21 05:57:36;;;;;;;5.22;4.72;;;-2.20;99.90;;;;;;5035260;28;20171;-75
2021/12/21 06:00:09;;;;;;;4.70;4.30;;;-2.20;99.90;;;;;;5035368;28;20522;-75
2021/12/21 06:02:35;;;;;;;7.63;5.57;;;-2.20;99.90;;;;;;5034363;28;20501;-73
2021/12/21 06:05:01;;;;;;;4.53;4.13;;;-2.20;99.90;;;;;;5035295;28;20291;-75
2021/12/21 06:07:26;;;;;;;6.43;5.77;;;-2.20;99.90;;;;;;5034519;28;20268;-65
2021/12/21 06:09:52;;;;;;;5.67;5.17;;;-2.20;99.90;;;;;;5034487;28;20176;-69
2021/12/21 06:12:41;;;;;;;5.90;4.60;;;-2.20;99.90;;;;;;5034448;28;20170;-72
2021/12/21 06:28:17;;;;;;;8.98;8.27;;;-2.30;99.90;;;;;;5034772;28;20269;-65
2021/12/21 06:30:43;;;;;;;6.78;6.28;;;-2.30;99.90;;;;;;5034092;28;20211;-75
2021/12/21 06:33:09;;;;;;;5.95;5.35;;;-2.40;99.90;;;;;;5032289;28;20286;-75
2021/12/21 06:35:37;;;;;;;6.07;5.00;;;-2.30;99.90;;;;;;5030131;28;20203;-73
2021/12/21 06:38:03;;;;;;;6.55;4.95;;;-2.30;99.90;;;;;;5018188;28;20168;-75
2021/12/21 06:40:31;;;;;;;6.28;5.78;;;-2.30;99.90;;;;;;5034886;28;20163;-74
2021/12/21 06:42:59;;;;;;;5.68;5.22;;;-2.30;99.90;;;;;;5033732;28;20160;-74
2021/12/21 06:45:31;;;;;;;5.70;5.18;;;-2.20;99.90;;;;;;5034686;28;20614;-74
2021/12/21 06:53:26;;;;;;;6.57;5.78;;;-2.20;99.90;;;;;;5033418;28;20179;-66
2021/12/21 06:55:52;;;;;;;5.53;5.10;;;-2.10;99.90;;;;;;5034338;28;20207;-66
2021/12/21 06:58:17;;;;;;;5.77;5.13;;;-2.10;99.90;;;;;;5034240;28;20603;-66
2021/12/21 07:00:44;;;;;;;6.83;5.47;;;-2.10;99.90;;;;;;5034488;28;20564;-65
2021/12/21 07:03:12;;;;;;;7.63;6.68;;;-2.00;99.90;;;;;;5033183;28;20528;-66
2021/12/21 07:05:40;;;;;;;6.50;5.72;;;-2.00;99.90;;;;;;5034197;28;20278;-65
2021/12/21 07:08:08;;;;;;;9.15;7.20;;;-2.00;99.90;;;;;;5033339;28;20159;-66
2021/12/21 07:10:34;;;;;;;6.15;5.75;;;-2.00;99.90;;;;;;5014474;28;20217;-66
2021/12/21 07:18:39;;;;;;;17.00;5.93;;;-1.90;99.90;;;;;;5017443;28;20260;-66
2021/12/21 07:21:05;;;;;;;16.67;5.13;;;-1.90;99.90;;;;;;5033865;28;20179;-75
2021/12/21 07:23:31;;;;;;;5.37;4.97;;;-1.90;99.90;;;;;;5032874;28;20325;-71
2021/12/21 07:25:56;;;;;;;6.03;5.53;;;-1.90;99.90;;;;;;5033576;28;20572;-66
2021/12/21 07:28:23;;;;;;;6.03;5.63;;;-1.90;99.90;;;;;;5033171;28;20398;-70
2021/12/21 07:30:49;;;;;;;5.45;4.60;;;-2.00;99.90;;;;;;5032415;28;20611;-75
2021/12/21 07:33:18;;;;;;;5.43;4.80;;;-2.00;99.90;;;;;;5033027;28;20583;-67
2021/12/21 07:35:43;;;;;;;5.95;5.45;;;-2.00;99.90;;;;;;5033504;28;20195;-65
2021/12/21 07:38:10;;;;;;;5.13;4.60;;;-2.00;99.90;;;;;;5033685;28;20502;-66
2021/12/21 07:40:37;;;;;;;7.75;7.07;;;-2.00;99.90;;;;;;5033445;28;20183;-65
2021/12/21 07:43:03;;;;;;;5.05;4.57;;;-2.00;99.90;;;;;;5032777;28;20171;-66
2021/12/21 07:45:29;;;;;;;6.07;5.47;;;-2.00;99.90;;;;;;5017582;28;20218;-74
2021/12/21 07:47:55;;;;;;;4.10;3.90;;;-2.10;99.90;;;;;;5037032;28;20172;-66
2021/12/21 07:50:21;;;;;;;6.00;5.40;;;-2.10;99.90;;;;;;5033507;28;20226;-76
2021/12/21 07:52:47;;;;;;;4.78;4.50;;;-2.10;99.90;;;;;;5031424;28;20504;-75
2021/12/21 07:55:13;;;;;;;5.25;4.75;;;-2.10;99.90;;;;;;5033005;28;20187;-66
2021/12/21 07:57:39;;;;;;;11.40;4.97;;;-2.10;99.90;;;;;;5033398;28;20222;-67
2021/12/21 08:00:06;;;;;;;5.70;5.20;;;-2.10;99.90;;;;;;5033115;28;20186;-75
2021/12/21 08:02:33;;;;;;;5.65;5.25;;;-2.00;99.90;;;;;;5032260;28;20411;-72
2021/12/21 08:04:59;;;;;;;6.95;5.30;;;-2.00;99.90;;;;;;5032024;28;20238;-74
2021/12/21 08:07:31;;;;;;;7.95;5.35;;;-2.00;99.90;;;;;;5032014;28;20722;-65
2021/12/21 08:09:58;;;;;;;6.18;5.57;;;-2.00;99.90;;;;;;5033036;28;20183;-66
2021/12/21 08:12:24;;;;;;;5.18;4.78;;;-2.00;99.90;;;;;;5032267;28;20170;-66
2021/12/21 08:14:51;;;;;;;4.87;4.57;;;-2.00;99.90;;;;;;5031991;28;20188;-75
2021/12/21 08:17:19;;;;;;;6.70;6.13;;;-2.00;99.90;;;;;;5033080;28;20281;-66
2021/12/21 08:19:45;;;;;;;8.10;6.40;;;-2.00;99.90;;;;;;5032801;28;20203;-75
2021/12/21 08:22:12;;;;;;;6.03;5.25;;;-2.10;99.90;;;;;;5029862;28;20598;-66
2021/12/21 08:24:38;;;;;;;7.72;4.95;;;-2.10;99.90;;;;;;5032464;28;20301;-74
2021/12/21 08:27:04;;;;;;;5.28;4.88;;;-2.10;99.90;;;;;;5032725;28;20233;-75
2021/12/21 08:29:31;;;;;;;5.77;5.03;;;-2.00;99.90;;;;;;5032900;28;20635;-75
2021/12/21 08:31:57;;;;;;;6.53;5.97;;;-2.00;99.90;;;;;;5031348;28;20405;-70
2021/12/21 08:34:22;;;;;;;6.50;4.82;;;-1.90;99.90;;;;;;5031233;28;20187;-66
2021/12/21 08:36:49;;;;;;;6.10;4.70;;;-1.80;99.90;;;;;;5033000;28;20191;-72
2021/12/21 08:39:17;;;;;;;7.72;6.82;;;-1.80;99.90;;;;;;5032987;28;20190;-66
2021/12/21 08:41:44;;;;;;;13.48;8.65;;;-1.70;99.90;;;;;;5031000;28;20174;-75
2021/12/21 08:44:11;;;;;;;14.15;8.27;;;-1.60;99.90;;;;;;5032074;28;20194;-66
2021/12/21 08:46:39;;;;;;;12.63;11.32;;;-1.50;99.90;;;;;;5032855;28;20187;-67
2021/12/21 08:49:05;;;;;;;10.80;7.90;;;-1.40;99.90;;;;;;5034265;28;20160;-66
2021/12/21 08:51:31;;;;;;;7.83;7.03;;;-1.30;99.90;;;;;;5034521;28;20544;-67
2021/12/21 08:53:57;;;;;;;8.57;7.78;;;-1.30;99.90;;;;;;5032904;28;20164;-71
2021/12/21 08:56:22;;;;;;;7.53;6.83;;;-1.20;99.90;;;;;;5034837;28;20250;-74
2021/12/21 08:58:48;;;;;;;9.27;8.17;;;-1.20;99.90;;;;;;5034450;28;20206;-67
2021/12/21 09:01:16;;;;;;;11.83;9.03;;;-1.20;99.90;;;;;;5032048;28;20248;-75
2021/12/21 09:03:42;;;;;;;10.32;9.35;;;-1.10;99.90;;;;;;5032564;28;20191;-66
2021/12/21 09:06:08;;;;;;;11.85;8.70;;;-1.10;99.90;;;;;;5033333;28;20549;-65
2021/12/21 09:08:34;;;;;;;6.40;5.87;;;-1.10;99.90;;;;;;5032600;28;20171;-65
2021/12/21 09:11:03;;;;;;;8.50;7.10;;;-1.00;99.90;;;;;;5030491;28;20255;-66
2021/12/21 09:13:30;;;;;;;7.25;6.55;;;-1.00;99.90;;;;;;5040834;28;20174;-76
2021/12/21 09:15:56;;;;;;;10.90;8.13;;;-1.00;99.90;;;;;;5052439;28;20187;-69
2021/12/21 09:18:22;;;;;;;8.18;7.40;;;-0.90;99.90;;;;;;5051181;28;20171;-74
2021/12/21 09:20:48;;;;;;;8.50;7.80;;;-0.90;99.90;;;;;;5052128;28;20164;-76
2021/12/21 09:23:14;;;;;;;9.57;8.67;;;-0.80;99.90;;;;;;5051804;28;20197;-74
2021/12/21 09:25:40;;;;;;;10.45;7.35;;;-0.80;99.90;;;;;;5052651;28;20187;-75
2021/12/21 09:28:05;;;;;;;10.80;7.03;;;-0.80;99.90;;;;;;5052506;28;20229;-76
2021/12/21 09:30:31;;;;;;;11.00;8.43;;;-0.80;99.90;;;;;;5052221;28;20244;-74
2021/12/21 09:32:58;;;;;;;7.93;7.13;;;-0.80;99.90;;;;;;5051361;28;20178;-76
2021/12/21 09:35:24;;;;;;;7.38;6.80;;;-0.70;99.90;;;;;;5051676;28;20191;-65
2021/12/21 09:37:51;;;;;;;8.80;7.22;;;-0.70;99.90;;;;;;5052351;28;20171;-76
2021/12/21 09:40:19;;;;;;;9.85;6.45;;;-0.70;99.90;;;;;;5052326;28;20167;-66
2021/12/21 09:42:46;;;;;;;7.45;5.90;;;-0.70;99.90;;;;;;5052760;28;20543;-66
2021/12/21 09:45:12;;;;;;;12.27;6.82;;;-0.60;99.90;;;;;;5055569;28;20683;-75
2021/12/21 09:47:38;;;;;;;7.88;7.10;;;-0.60;99.90;;;;;;5055860;28;20224;-67
2021/12/21 09:50:05;;;;;;;12.50;8.67;;;-0.60;99.90;;;;;;5055781;28;20190;-76
2021/12/21 09:52:32;;;;;;;8.82;8.23;;;-0.60;99.90;;;;;;5054838;28;20173;-76
2021/12/21 09:54:59;;;;;;;10.43;9.38;;;-0.60;99.90;;;;;;5054705;28;20170;-74
2021/12/21 09:57:25;;;;;;;12.05;6.60;;;-0.50;99.90;;;;;;5055464;28;20210;-70
2021/12/21 09:59:51;;;;;;;6.57;6.07;;;-0.50;99.90;;;;;;5055489;28;20269;-76
2021/12/21 10:02:20;;;;;;;7.45;6.75;;;-0.50;99.90;;;;;;5054621;28;20171;-75
2021/12/21 10:05:03;;;;;;;6.68;6.07;;;-0.50;99.90;;;;;;5054274;28;20206;-76
2021/12/21 10:07:29;;;;;;;9.13;5.95;;;-0.40;99.90;;;;;;5055528;28;20600;-76
2021/12/21 10:10:14;;;;;;;13.00;8.17;;;-0.40;99.90;;;;;;5055407;28;20171;-76
2021/12/21 10:12:45;;;;;;;11.63;7.00;;;-0.30;99.90;;;;;;5054459;28;20717;-75
2021/12/21 10:15:15;;;;;;;11.30;7.10;;;-0.30;99.90;;;;;;5054286;28;20190;-76
2021/12/21 10:17:49;;;;;;;9.60;7.80;;;-0.20;99.90;;;;;;5055357;28;20174;-76
2021/12/21 10:20:37;;;;;;;9.55;7.55;;;-0.20;99.90;;;;;;5055217;28;20244;-74
2021/12/21 10:23:15;;;;;;;14.15;7.35;;;-0.10;99.90;;;;;;5054180;28;20575;-75
2021/12/21 10:25:54;;;;;;;7.20;6.50;;;0.00;99.90;;;;;;5055033;28;20281;-66
2021/12/21 10:28:27;;;;;;;6.13;5.65;;;0.10;99.90;;;;;;5055156;28;20174;-77
2021/12/21 10:30:54;;;;;;;12.88;7.38;;;0.10;99.90;;;;;;5053721;28;20178;-74
2021/12/21 10:33:23;;;;;;;11.93;8.43;;;0.20;99.90;;;;;;5053311;28;20170;-67
2021/12/21 10:35:50;;;;;;;12.20;8.98;;;0.20;99.90;;;;;;5054564;28;20183;-66
2021/12/21 10:38:28;;;;;;;7.95;7.20;;;0.30;99.90;;;;;;5054758;28;20187;-66
2021/12/21 10:40:54;;;;;;;5.78;5.45;;;0.40;99.90;;;;;;5054844;28;20170;-74
2021/12/21 10:43:20;;;;;;;11.35;7.30;;;0.40;99.90;;;;;;5053741;28;20167;-66
2021/12/21 10:45:47;;;;;;;8.97;7.93;;;0.50;99.90;;;;;;5054662;28;20614;-66
2021/12/21 10:48:18;;;;;;;14.82;7.35;;;0.70;99.90;;;;;;5054715;28;20409;-67
2021/12/21 10:50:44;;;;;;;8.63;7.80;;;0.80;99.90;;;;;;5053871;28;20186;-76
2021/12/21 10:53:18;;;;;;;11.23;7.55;;;0.80;99.90;;;;;;5053667;28;20779;-76
2021/12/21 10:55:44;;;;;;;12.63;7.32;;;0.80;99.90;;;;;;5053748;28;20205;-67
2021/12/21 10:58:15;;;;;;;16.93;7.00;;;0.80;99.90;;;;;;5054526;28;20170;-66
2021/12/21 11:00:53;;;;;;;11.67;7.37;;;0.80;99.90;;;;;;5053259;28;20410;-77
2021/12/21 11:03:37;;;;;;;12.10;6.60;;;0.90;99.90;;;;;;5053375;28;20407;-77
2021/12/21 11:06:13;;;;;;;7.07;5.70;;;1.00;99.90;;;;;;5054477;28;20722;-76
2021/12/21 11:08:42;;;;;;;10.35;5.30;;;1.10;99.90;;;;;;5035680;28;20571;-69
2021/12/21 11:11:19;;;;;;;9.50;6.00;;;1.20;99.90;;;;;;5033348;28;20171;-71
2021/12/21 11:13:44;;;;;;;8.63;6.53;;;1.20;99.90;;;;;;5033015;28;20167;-76
2021/12/21 11:16:10;;;;;;;8.67;5.93;;;1.20;99.90;;;;;;5040786;28;20442;-67
2021/12/21 11:18:37;;;;;;;7.03;6.33;;;1.20;99.90;;;;;;5035211;28;20578;-77
2021/12/21 11:21:06;;;;;;;5.47;4.97;;;1.10;99.90;;;;;;5033688;28;20644;-66
2021/12/21 11:23:34;;;;;;;6.07;5.57;;;1.10;99.90;;;;;;5033193;28;20183;-70
2021/12/21 11:26:01;;;;;;;4.75;4.32;;;1.10;99.90;;;;;;5035072;28;20221;-67
2021/12/21 11:28:29;;;;;;;4.57;4.13;;;1.10;99.90;;;;;;5033972;28;20245;-77
2021/12/21 11:30:59;;;;;;;5.95;5.32;;;1.20;99.90;;;;;;5033728;28;20414;-71
2021/12/21 11:33:27;;;;;;;6.27;5.70;;;1.40;99.90;;;;;;5032931;28;20179;-76
2021/12/21 11:38:38;;;;;;;7.27;5.63;;;1.40;99.90;;;;;;5033816;28;20269;-66
2021/12/21 11:41:05;;;;;;;10.73;5.83;;;1.50;99.90;;;;;;5033356;28;20446;-76
2021/12/21 11:43:40;;;;;;;4.88;4.45;;;1.50;99.90;;;;;;5031911;28;20168;-66
2021/12/21 11:46:09;;;;;;;4.53;4.23;;;1.60;99.90;;;;;;5033248;28;20191;-76
2021/12/21 11:48:48;;;;;;;8.63;6.87;;;1.70;99.90;;;;;;5033498;28;20405;-66
2021/12/21 11:51:14;;;;;;;5.00;4.53;;;1.70;99.90;;;;;;5031895;28;20437;-66
2021/12/21 11:53:40;;;;;;;5.80;5.30;;;1.60;99.90;;;;;;5031398;28;20402;-75
2021/12/21 11:56:07;;;;;;;7.80;5.85;;;1.70;99.90;;;;;;5033055;28;20465;-67
2021/12/21 11:58:41;;;;;;;6.03;5.33;;;1.60;99.90;;;;;;5033436;28;20163;-76
2021/12/21 12:01:20;;;;;;;6.20;4.53;;;1.70;99.90;;;;;;5032515;28;20509;-75
2021/12/21 12:04:06;;;;;;;6.03;5.37;;;1.70;99.90;;;;;;5032202;28;20543;-67
2021/12/21 12:06:52;;;;;;;5.83;4.47;;;1.70;99.90;;;;;;5031222;28;20437;-76
2021/12/21 12:09:31;;;;;;;4.63;4.10;;;1.70;99.90;;;;;;5033280;28;20433;-76
2021/12/21 12:12:15;;;;;;;7.63;4.47;;;1.80;99.90;;;;;;5032673;28;20475;-76
2021/12/21 12:14:44;;;;;;;4.53;4.27;;;1.90;99.90;;;;;;5032018;28;20410;-76
2021/12/21 12:17:12;;;;;;;5.70;3.97;;;1.90;99.90;;;;;;5032503;28;20450;-68
2021/12/21 12:19:41;;;;;;;5.70;4.23;;;2.00;99.90;;;;;;5032062;28;20401;-76
2021/12/21 12:22:09;;;;;;;6.80;5.30;;;2.00;99.90;;;;;;5013130;28;20430;-69
2021/12/21 12:24:42;;;;;;;5.53;5.13;;;1.90;99.90;;;;;;5014577;28;20459;-76
2021/12/21 12:27:20;;;;;;;5.43;4.90;;;1.90;99.90;;;;;;5032911;28;20792;-66
2021/12/21 12:29:50;;;;;;;5.87;5.37;;;1.90;99.90;;;;;;5032684;28;20894;-67
2021/12/21 12:32:18;;;;;;;3.67;3.40;;;1.80;99.90;;;;;;5031922;28;20398;-67
2021/12/21 12:34:44;;;;;;;16.50;3.93;;;1.80;99.90;;;;;;5032876;28;20922;-66
2021/12/21 12:37:22;;;;;;;3.93;3.57;;;1.90;99.90;;;;;;5032834;28;20633;-66
2021/12/21 12:39:50;;;;;;;5.10;3.40;;;1.90;99.90;;;;;;5031856;28;20398;-66
2021/12/21 12:42:25;;;;;;;3.70;3.10;;;2.00;99.90;;;;;;5031812;28;20911;-67
2021/12/21 12:45:15;;;;;;;7.80;3.90;;;2.00;99.90;;;;;;5032636;28;20842;-67
2021/12/21 12:47:49;;;;;;;10.70;3.30;;;2.10;99.90;;;;;;5032767;28;20772;-74
2021/12/21 12:50:24;;;;;;;4.00;3.70;;;2.20;99.90;;;;;;5032364;28;20926;-67
2021/12/21 12:52:53;;;;;;;4.77;3.80;;;2.20;99.90;;;;;;5031975;28;20815;-76
2021/12/21 12:55:19;;;;;;;9.60;4.77;;;2.30;99.90;;;;;;5032054;28;20421;-75
2021/12/21 12:58:00;;;;;;;4.27;3.77;;;2.30;99.90;;;;;;5027146;28;20434;-76
2021/12/21 13:00:31;;;;;;;5.30;4.20;;;2.30;99.90;;;;;;5017143;28;20422;-66
2021/12/21 13:03:06;;;;;;;5.20;4.70;;;2.30;99.90;;;;;;5031713;28;20422;-75
2021/12/21 13:05:40;;;;;;;5.60;3.87;;;2.30;99.90;;;;;;5032317;28;20465;-67
2021/12/21 13:08:07;;;;;;;5.53;4.03;;;2.30;99.90;;;;;;5032801;28;20417;-67
2021/12/21 13:10:36;;;;;;;11.53;4.03;;;2.20;99.90;;;;;;5031257;28;20414;-67
2021/12/21 13:13:02;;;;;;;7.60;4.10;;;2.30;99.90;;;;;;5030618;28;20414;-76
2021/12/21 13:15:43;;;;;;;3.50;3.30;;;2.20;99.90;;;;;;5031249;28;20430;-66
2021/12/21 13:18:17;;;;;;;3.83;3.53;;;2.30;99.90;;;;;;5034492;28;20414;-75
2021/12/21 13:20:44;;;;;;;6.43;3.70;;;2.40;99.90;;;;;;5036269;28;20764;-69
2021/12/21 13:23:29;;;;;;;5.07;3.50;;;2.30;99.90;;;;;;5034997;28;20475;-66
2021/12/21 13:26:09;;;;;;;3.80;3.60;;;2.40;99.90;;;;;;5036114;28;20509;-66
2021/12/21 13:28:45;;;;;;;9.70;3.53;;;2.40;99.90;;;;;;5035932;28;20406;-67
2021/12/21 13:31:10;;;;;;;4.33;4.00;;;2.40;99.90;;;;;;5035165;28;20814;-75
2021/12/21 13:33:40;;;;;;;3.57;3.27;;;2.30;99.90;;;;;;5033512;28;20414;-67
2021/12/21 13:36:07;;;;;;;5.30;4.90;;;2.20;99.90;;;;;;5033441;28;20767;-68
2021/12/21 13:38:36;;;;;;;7.80;4.27;;;2.20;99.90;;;;;;5037449;28;20421;-76
2021/12/21 13:41:09;;;;;;;9.03;4.30;;;2.30;99.90;;;;;;5035935;28;20460;-67
2021/12/21 13:43:37;;;;;;;4.40;3.80;;;2.30;99.90;;;;;;5034435;28;20418;-76
2021/12/21 13:46:08;;;;;;;9.50;4.00;;;2.30;99.90;;;;;;5034633;28;20434;-76
2021/12/21 13:48:36;;;;;;;4.60;4.20;;;2.30;99.90;;;;;;5033523;28;20406;-66
2021/12/21 13:51:28;;;;;;;5.37;4.83;;;2.30;99.90;;;;;;5034623;28;20438;-76
2021/12/21 13:53:58;;;;;;;5.80;4.17;;;2.30;99.90;;;;;;5033497;28;20938;-67
2021/12/21 13:56:27;;;;;;;6.83;3.60;;;2.40;99.90;;;;;;5035646;28;20441;-77
2021/12/21 13:58:54;;;;;;;6.50;4.70;;;2.40;99.90;;;;;;5035463;28;20474;-67
2021/12/21 14:01:29;;;;;;;4.43;4.07;;;2.50;99.90;;;;;;5034870;28;20934;-74
2021/12/21 14:03:58;;;;;;;5.37;4.20;;;2.50;99.90;;;;;;5034080;28;20465;-67